Estación Meteorológica Peña el Pijo (Robertgarden) [ 02/03/23 04:04:10 CET ]

Fecha Hora Presion(HPa) Temp (°C) Humedad % Rocio (°C) Viento ( m/s) Direccion Lluvia 1Hora(mm) Lluvia 24H(mm) LLuvia Total(mm)
2010-Dec-22 01:01:14 993.800 7.4 90 5.9         16.57
2010-Dec-22 02:03:12 992.700 7.8 86 5.6         16.57
2010-Dec-22 03:01:15 992.800 7.3 87 5.3         16.57
2010-Dec-22 04:01:17 992.400 7.3 90 5.8         16.57
2010-Dec-22 05:01:10 991.400 6.8 89 5.1         16.57
2010-Dec-22 06:01:13 990.900 6.9 87 4.9         16.57
2010-Dec-22 07:01:12 990.500 6.7 86 4.5         16.57
2010-Dec-22 08:01:14 990.200 6.0 85 3.6         16.57
2010-Dec-22 09:01:16 990.100 4.3 89 2.6         16.57
2010-Dec-22 10:01:13 990.000 4.9 90 3.4         16.57
2010-Dec-22 11:01:10 989.700 8.1 86 5.9         16.57
2010-Dec-22 12:01:12 989.500 12.9 64 6.2         16.57
2010-Dec-22 13:01:12 988.900 11.5 63 4.7         16.57
2010-Dec-22 14:01:11 987.500 11.6 63 4.8         16.57
2010-Dec-22 15:01:11 986.900 11.8 62 4.7         16.57
2010-Dec-22 16:01:17 987.100 10.4 68 4.8         16.57
2010-Dec-22 17:01:14 986.800 8.2 83 5.5         16.57
2010-Dec-22 18:01:13 986.900 7.5 84 5.0         16.57
2010-Dec-22 19:01:12 987.200 6.1 88 4.3         16.57
2010-Dec-22 20:01:13 987.600 5.2 88 3.4         16.57
2010-Dec-22 21:01:11 987.400 4.1 89 2.4         16.57
2010-Dec-22 22:01:17 987.500 2.9 90 1.4         16.57
2010-Dec-22 23:01:14 987.400 2.5 91 1.1         16.57

Temperatura Máxima:12°    Temperatura Mínima:
Presión Máxima:993.800 Hpa    Presión Mínima:986.800 Hpa


Volver